Time;durP1;ratioP1;P1;durP2;ratioP2;P2;SDS_P1;SDS_P2;PMS_P1;PMS_P2;Temp;Humidity;BMP_temperature;BMP_pressure;BME280_temperature;BME280_humidity;BME280_pressure;Samples;Min_cycle;Max_cycle;Signal;HPM_P1;HPM_P2
2022/01/10 00:00:22;;;;;;;14.48;4.45;;;25.60;68.60;;;;;;4965105;28;20118;-71
2022/01/10 00:02:53;;;;;;;12.15;5.10;;;25.60;68.60;;;;;;4961067;28;20058;-72
2022/01/10 00:05:20;;;;;;;11.60;4.03;;;25.60;69.30;;;;;;4961964;28;20082;-71
2022/01/10 00:07:46;;;;;;;13.02;5.03;;;25.60;68.70;;;;;;4963434;28;20478;-75
2022/01/10 00:10:13;;;;;;;14.38;4.15;;;25.60;68.70;;;;;;4962524;28;20061;-75
2022/01/10 00:12:40;;;;;;;15.52;5.22;;;25.60;68.70;;;;;;4961113;28;20023;-72
2022/01/10 00:15:08;;;;;;;16.00;4.75;;;25.60;68.70;;;;;;4956882;28;20027;-72
2022/01/10 00:17:38;;;;;;;17.83;4.75;;;25.60;68.70;;;;;;4960466;28;20034;-76
2022/01/10 00:20:10;;;;;;;12.65;4.88;;;25.50;68.70;;;;;;4959556;28;20248;-74
2022/01/10 00:22:37;;;;;;;16.70;5.05;;;25.50;68.70;;;;;;4958897;28;20510;-74
2022/01/10 00:25:04;;;;;;;14.48;4.68;;;25.50;68.80;;;;;;4957489;28;20109;-72
2022/01/10 00:27:31;;;;;;;16.60;5.32;;;25.50;68.90;;;;;;4961837;28;20444;-70
2022/01/10 00:29:58;;;;;;;14.32;3.97;;;25.50;68.90;;;;;;4963254;28;20019;-71
2022/01/10 00:32:26;;;;;;;8.15;3.45;;;25.50;69.00;;;;;;4959797;28;20588;-70
2022/01/10 00:34:53;;;;;;;12.30;3.22;;;25.50;69.00;;;;;;4960675;28;20026;-75
2022/01/10 00:37:23;;;;;;;11.18;3.40;;;25.50;69.00;;;;;;4961931;28;20070;-75
2022/01/10 00:39:49;;;;;;;18.52;4.60;;;25.50;69.00;;;;;;4962571;28;20035;-72
2022/01/10 00:42:17;;;;;;;12.55;3.95;;;25.40;68.90;;;;;;4960775;28;20039;-72
2022/01/10 00:44:51;;;;;;;16.05;4.15;;;25.50;68.90;;;;;;4965971;28;20023;-75
2022/01/10 00:47:18;;;;;;;8.38;3.50;;;25.50;69.00;;;;;;4959917;28;20046;-72
2022/01/10 00:49:47;;;;;;;16.20;4.45;;;25.40;68.90;;;;;;4962019;28;20037;-73
2022/01/10 00:52:14;;;;;;;10.15;3.35;;;25.40;68.90;;;;;;4959051;28;20015;-70
2022/01/10 00:54:52;;;;;;;;;;;;;;;;;;;;;
2022/01/10 00:57:19;;;;;;;13.52;4.03;;;25.40;68.90;;;;;;4964286;28;20486;-67
2022/01/10 00:59:46;;;;;;;13.73;4.18;;;25.40;68.90;;;;;;4958866;28;20728;-70
2022/01/10 01:02:12;;;;;;;11.00;3.55;;;25.40;69.00;;;;;;4964076;28;20027;-72
2022/01/10 01:04:39;;;;;;;12.95;3.50;;;25.40;69.00;;;;;;4967667;28;20541;-77
2022/01/10 01:07:05;;;;;;;10.07;3.17;;;25.40;69.20;;;;;;4966147;28;20082;-74
2022/01/10 01:09:33;;;;;;;10.60;3.67;;;25.40;69.20;;;;;;4966450;28;20109;-72
2022/01/10 01:12:19;;;;;;;10.35;3.47;;;25.40;69.30;;;;;;4967906;28;20023;-72
2022/01/10 01:14:56;;;;;;;13.90;3.58;;;25.40;69.30;;;;;;4964421;28;20038;-69
2022/01/10 01:25:04;;;;;;;;;;;25.40;69.10;;;;;;4971229;28;20438;-67
2022/01/10 01:27:31;;;;;;;14.68;4.40;;;25.30;68.90;;;;;;4971165;28;19910;-73
2022/01/10 01:29:57;;;;;;;17.67;3.50;;;25.40;68.90;;;;;;4970589;28;20023;-70
2022/01/10 01:32:24;;;;;;;9.90;3.10;;;25.30;68.90;;;;;;4970842;28;20023;-70
2022/01/10 01:34:55;;;;;;;14.68;3.13;;;25.30;68.90;;;;;;4970204;28;20122;-71
2022/01/10 01:37:21;;;;;;;12.48;3.67;;;25.30;69.00;;;;;;4973662;28;20023;-72
2022/01/10 01:39:48;;;;;;;11.30;4.82;;;25.30;68.90;;;;;;4970186;28;20058;-70
2022/01/10 01:44:56;;;;;;;14.68;3.72;;;25.30;68.90;;;;;;4964201;28;20063;-68
2022/01/10 01:47:22;;;;;;;8.32;3.28;;;25.30;68.90;;;;;;4971941;28;20058;-73
2022/01/10 01:49:49;;;;;;;12.45;4.20;;;25.30;68.80;;;;;;4971433;28;20023;-73
2022/01/10 01:52:15;;;;;;;11.93;4.00;;;25.30;68.80;;;;;;4972227;28;20027;-67
2022/01/10 01:54:42;;;;;;;11.90;3.58;;;25.30;68.80;;;;;;4970387;28;20023;-67
2022/01/10 01:57:08;;;;;;;11.23;3.30;;;25.30;68.80;;;;;;4973569;28;20031;-72
2022/01/10 01:59:38;;;;;;;10.27;3.20;;;25.30;68.70;;;;;;4965279;28;20019;-67
2022/01/10 02:02:05;;;;;;;12.15;3.50;;;25.30;68.70;;;;;;4973101;28;20033;-72
2022/01/10 02:04:32;;;;;;;39.58;5.90;;;25.30;68.70;;;;;;4969978;28;20386;-68
2022/01/10 02:06:59;;;;;;;12.20;3.63;;;25.30;69.30;;;;;;4967231;28;20079;-68
2022/01/10 02:09:26;;;;;;;11.63;4.30;;;25.30;68.60;;;;;;4970708;28;20053;-67
2022/01/10 02:11:53;;;;;;;16.55;3.80;;;25.20;68.60;;;;;;4974073;28;20058;-69
2022/01/10 02:14:19;;;;;;;40.20;6.43;;;25.30;68.70;;;;;;4968556;28;20366;-67
2022/01/10 02:16:53;;;;;;;37.40;4.68;;;25.30;68.80;;;;;;4974171;28;20011;-70
2022/01/10 02:19:20;;;;;;;14.80;5.53;;;25.30;68.90;;;;;;4966117;28;20380;-67
2022/01/10 02:21:47;;;;;;;16.33;3.25;;;25.20;68.80;;;;;;4967099;28;20419;-67
2022/01/10 02:24:13;;;;;;;16.00;2.78;;;25.20;68.60;;;;;;4969783;28;20041;-67
2022/01/10 02:26:40;;;;;;;13.35;3.45;;;25.20;68.50;;;;;;4968011;28;20505;-68
2022/01/10 02:29:07;;;;;;;10.30;3.72;;;25.20;68.50;;;;;;4970244;28;20402;-66
2022/01/10 02:31:39;;;;;;;5.88;2.63;;;25.20;68.50;;;;;;4972905;28;20486;-69
2022/01/10 02:34:06;;;;;;;7.70;3.15;;;25.20;68.40;;;;;;4972260;28;20024;-69
2022/01/10 02:36:33;;;;;;;14.43;3.92;;;25.20;68.40;;;;;;4969789;28;20023;-68
2022/01/10 02:39:08;;;;;;;10.00;3.22;;;25.20;68.40;;;;;;4969946;28;20023;-72
2022/01/10 02:41:40;;;;;;;11.57;3.90;;;25.20;68.40;;;;;;4965933;28;20027;-68
2022/01/10 02:44:16;;;;;;;10.57;3.85;;;25.20;68.40;;;;;;4971966;28;20367;-76
2022/01/10 02:46:44;;;;;;;11.15;3.58;;;25.20;68.40;;;;;;4971125;28;20789;-67
2022/01/10 02:49:22;;;;;;;11.82;3.78;;;25.20;68.30;;;;;;4971267;28;20114;-68
2022/01/10 02:51:49;;;;;;;10.68;2.83;;;25.20;68.40;;;;;;4968088;28;20027;-71
2022/01/10 02:54:15;;;;;;;10.45;3.28;;;25.20;68.30;;;;;;4970653;28;20030;-68
2022/01/10 02:56:49;;;;;;;10.38;3.10;;;25.20;68.40;;;;;;4970575;28;20027;-71
2022/01/10 02:59:16;;;;;;;9.85;3.17;;;25.20;68.40;;;;;;4969825;28;20382;-73
2022/01/10 03:01:42;;;;;;;19.23;3.55;;;25.20;68.30;;;;;;4971924;28;20031;-67
2022/01/10 03:04:09;;;;;;;31.50;5.05;;;25.20;68.30;;;;;;4968752;28;20050;-69
2022/01/10 03:06:36;;;;;;;13.25;4.20;;;25.20;68.40;;;;;;4972243;28;20042;-68
2022/01/10 03:09:05;;;;;;;9.27;3.63;;;25.20;68.40;;;;;;4965866;28;20027;-73
2022/01/10 03:11:33;;;;;;;15.75;3.13;;;25.20;68.30;;;;;;4972019;28;20514;-73
2022/01/10 03:14:00;;;;;;;13.15;3.53;;;25.10;68.10;;;;;;4969944;28;20549;-66
2022/01/10 03:16:27;;;;;;;22.05;3.90;;;25.10;68.10;;;;;;4969524;28;20104;-71
2022/01/10 03:18:53;;;;;;;14.38;3.67;;;25.10;68.10;;;;;;4971916;28;20513;-68
2022/01/10 03:21:20;;;;;;;20.33;4.22;;;25.10;68.20;;;;;;4972797;28;20068;-67
2022/01/10 03:23:51;;;;;;;23.17;3.78;;;25.10;68.10;;;;;;4968034;28;20086;-71
2022/01/10 03:26:19;;;;;;;12.68;3.15;;;25.00;68.10;;;;;;4971744;28;20014;-67
2022/01/10 03:28:45;;;;;;;12.02;3.25;;;25.00;68.10;;;;;;4969106;28;20019;-67
2022/01/10 03:31:12;;;;;;;14.73;4.03;;;25.00;68.20;;;;;;4962439;28;20475;-71
2022/01/10 03:33:39;;;;;;;13.05;3.13;;;25.00;68.20;;;;;;4970011;28;20019;-71
2022/01/10 03:36:05;;;;;;;13.40;4.18;;;25.00;68.30;;;;;;4966109;28;20373;-67
2022/01/10 03:38:32;;;;;;;8.80;3.20;;;25.00;68.30;;;;;;4967355;28;20034;-70
2022/01/10 03:40:58;;;;;;;14.40;3.88;;;24.90;68.40;;;;;;4963686;28;20070;-69
2022/01/10 03:43:25;;;;;;;11.68;5.07;;;25.00;68.50;;;;;;4971878;28;20514;-67
2022/01/10 03:45:52;;;;;;;19.25;3.47;;;24.90;68.50;;;;;;4964065;28;20561;-67
2022/01/10 03:48:18;;;;;;;19.77;3.80;;;24.90;68.40;;;;;;4969422;28;20023;-69
2022/01/10 03:50:45;;;;;;;36.45;6.53;;;24.90;68.60;;;;;;4971815;28;20030;-69
2022/01/10 03:53:11;;;;;;;53.10;8.18;;;24.90;68.70;;;;;;4971495;28;20378;-68
2022/01/10 03:55:38;;;;;;;43.95;8.35;;;24.90;68.70;;;;;;4971115;28;20039;-68
2022/01/10 03:58:05;;;;;;;38.38;6.55;;;24.90;68.70;;;;;;4968732;28;20023;-73
2022/01/10 04:00:32;;;;;;;15.05;4.30;;;24.90;68.80;;;;;;4970921;28;20509;-65
2022/01/10 04:03:03;;;;;;;17.70;4.40;;;24.90;68.80;;;;;;4966535;28;20039;-70
2022/01/10 04:05:30;;;;;;;32.00;14.48;;;24.80;69.00;;;;;;4972844;28;20019;-67
2022/01/10 04:07:56;;;;;;;28.65;19.45;;;24.70;69.60;;;;;;4976750;28;20077;-73
2022/01/10 04:10:23;;;;;;;31.10;14.80;;;24.60;69.70;;;;;;4951152;28;20429;-72
2022/01/10 04:12:50;;;;;;;25.02;11.65;;;24.60;69.70;;;;;;4968657;28;20503;-70
2022/01/10 04:15:16;;;;;;;19.33;7.95;;;24.60;69.60;;;;;;4968865;28;20525;-70
2022/01/10 04:17:43;;;;;;;12.60;5.22;;;24.70;69.60;;;;;;4968666;28;20027;-71
2022/01/10 04:20:10;;;;;;;15.70;5.00;;;24.70;69.40;;;;;;4971390;28;20019;-65
2022/01/10 04:22:37;;;;;;;19.02;5.25;;;24.70;69.30;;;;;;4970722;28;20434;-70
2022/01/10 04:25:04;;;;;;;61.13;8.35;;;24.70;69.30;;;;;;4969654;28;20042;-73
2022/01/10 04:27:32;;;;;;;70.50;15.90;;;24.80;69.40;;;;;;4965154;28;20030;-65
2022/01/10 04:30:01;;;;;;;70.30;41.78;;;24.80;69.70;;;;;;4968404;28;20042;-75
2022/01/10 04:32:30;;;;;;;84.53;48.17;;;24.80;69.80;;;;;;4966964;28;20023;-72
2022/01/10 04:34:57;;;;;;;65.45;35.03;;;24.80;69.90;;;;;;4969063;28;20030;-74
2022/01/10 04:37:24;;;;;;;48.20;23.08;;;24.80;69.90;;;;;;4965196;28;20015;-71
2022/01/10 04:39:50;;;;;;;30.48;13.82;;;24.80;69.60;;;;;;4971177;28;20791;-67
2022/01/10 04:42:17;;;;;;;20.75;10.25;;;24.80;69.50;;;;;;4971021;28;20089;-73
2022/01/10 04:44:43;;;;;;;41.88;16.88;;;24.80;69.40;;;;;;4969565;28;20022;-68
2022/01/10 04:47:10;;;;;;;34.45;14.90;;;24.80;69.40;;;;;;4970996;28;20509;-67
2022/01/10 04:50:03;;;;;;;24.48;9.95;;;24.80;69.50;;;;;;4966935;28;20023;-76
2022/01/10 04:52:23;;;;;;;20.25;6.97;;;24.90;69.50;;;;;;4969000;28;20033;-71
2022/01/10 04:54:50;;;;;;;18.85;5.97;;;24.80;69.50;;;;;;4970122;28;20026;-70
2022/01/10 04:57:16;;;;;;;13.35;3.97;;;24.90;69.40;;;;;;4970001;28;20114;-70
2022/01/10 04:59:43;;;;;;;11.98;4.03;;;24.80;69.20;;;;;;4968753;28;20027;-74
2022/01/10 05:02:12;;;;;;;12.10;3.20;;;24.90;69.10;;;;;;4963986;28;20100;-72
2022/01/10 05:04:39;;;;;;;8.30;3.03;;;24.80;68.90;;;;;;4967282;28;20501;-73
2022/01/10 05:07:05;;;;;;;9.70;4.60;;;24.80;68.80;;;;;;4966394;28;20089;-70
2022/01/10 05:09:32;;;;;;;21.90;4.00;;;24.80;68.70;;;;;;4971580;28;20482;-74
2022/01/10 05:12:17;;;;;;;20.48;4.53;;;24.80;68.70;;;;;;4971106;28;20032;-77
2022/01/10 05:14:44;;;;;;;12.38;3.83;;;24.80;68.70;;;;;;4969542;28;20043;-76
2022/01/10 05:17:11;;;;;;;21.95;4.68;;;24.80;68.70;;;;;;4970459;28;20031;-70
2022/01/10 05:19:37;;;;;;;22.27;5.95;;;24.80;68.70;;;;;;4973148;28;20039;-76
2022/01/10 05:22:04;;;;;;;20.67;5.22;;;24.90;68.70;;;;;;4956844;28;20438;-69
2022/01/10 05:24:30;;;;;;;53.60;18.83;;;24.80;68.80;;;;;;4972017;28;21141;-77
2022/01/10 05:26:57;;;;;;;41.75;17.42;;;24.90;69.00;;;;;;4969403;28;20121;-73
2022/01/10 05:29:23;;;;;;;44.97;17.77;;;24.80;69.00;;;;;;4955162;28;20069;-72
2022/01/10 05:31:50;;;;;;;43.03;14.35;;;24.90;69.00;;;;;;4962430;28;20508;-74
2022/01/10 05:34:16;;;;;;;43.50;10.35;;;24.90;68.90;;;;;;4970606;28;20037;-66
2022/01/10 05:36:43;;;;;;;43.88;8.68;;;24.90;68.90;;;;;;4969760;28;20114;-70
2022/01/10 05:46:53;;;;;;;43.97;7.72;;;24.90;68.90;;;;;;4427971;28;15557261;-69
2022/01/10 05:49:25;;;;;;;38.20;6.43;;;24.90;68.80;;;;;;4960132;28;20114;-72
2022/01/10 05:51:52;;;;;;;42.55;6.50;;;25.00;68.90;;;;;;4966636;28;20016;-70
2022/01/10 05:54:19;;;;;;;31.83;5.70;;;25.00;68.90;;;;;;4968150;28;20038;-71
2022/01/10 05:56:45;;;;;;;26.13;4.88;;;25.00;68.90;;;;;;4966474;28;20046;-72
2022/01/10 05:59:12;;;;;;;52.70;15.98;;;25.00;68.80;;;;;;4970513;28;20046;-71
2022/01/10 06:01:38;;;;;;;46.55;23.38;;;25.00;68.80;;;;;;4973345;28;20424;-73
2022/01/10 06:04:05;;;;;;;36.40;16.20;;;25.00;68.80;;;;;;4965384;28;20403;-72
2022/01/10 06:06:31;;;;;;;35.63;9.43;;;25.10;68.80;;;;;;4961216;28;20030;-71
2022/01/10 06:08:58;;;;;;;16.90;6.40;;;25.00;68.50;;;;;;4964529;28;20134;-71
2022/01/10 06:11:24;;;;;;;13.95;5.93;;;25.10;68.30;;;;;;4961736;28;20023;-71
2022/01/10 06:13:51;;;;;;;20.88;4.88;;;25.10;68.10;;;;;;4969977;28;20073;-72
2022/01/10 06:16:17;;;;;;;29.63;5.53;;;25.10;68.00;;;;;;4969864;28;20031;-71
2022/01/10 06:18:44;;;;;;;14.32;3.58;;;25.10;67.90;;;;;;4967043;28;20026;-71
2022/01/10 06:21:10;;;;;;;9.02;3.30;;;25.20;67.80;;;;;;4959890;28;20043;-71
2022/01/10 06:23:37;;;;;;;8.82;2.80;;;25.20;67.70;;;;;;4951771;28;20054;-72
2022/01/10 06:26:03;;;;;;;11.63;4.15;;;25.20;67.40;;;;;;4964352;28;20042;-71
2022/01/10 06:28:30;;;;;;;14.88;3.50;;;25.20;67.20;;;;;;4966064;28;20046;-71
2022/01/10 06:30:56;;;;;;;10.15;3.13;;;25.20;67.10;;;;;;4953631;28;20527;-72
2022/01/10 06:33:23;;;;;;;15.68;3.13;;;25.20;67.00;;;;;;4963130;28;20117;-73
2022/01/10 06:35:50;;;;;;;15.75;4.78;;;25.20;67.00;;;;;;4964718;28;20029;-72
2022/01/10 06:38:16;;;;;;;8.90;3.35;;;25.20;66.80;;;;;;4967339;28;20045;-72
2022/01/10 06:40:43;;;;;;;11.98;3.33;;;25.20;66.60;;;;;;4964361;28;20073;-72
2022/01/10 06:43:09;;;;;;;8.73;2.85;;;25.20;66.40;;;;;;4966132;28;20548;-73
2022/01/10 06:45:37;;;;;;;7.90;2.50;;;25.20;66.30;;;;;;4967686;28;20046;-71
2022/01/10 06:48:05;;;;;;;10.32;3.20;;;25.30;66.30;;;;;;4972777;28;20033;-72
2022/01/10 06:50:31;;;;;;;22.95;13.63;;;25.30;66.20;;;;;;4964190;28;20029;-72
2022/01/10 06:52:58;;;;;;;30.55;17.02;;;25.30;66.20;;;;;;4961376;28;20436;-73
2022/01/10 06:55:25;;;;;;;19.67;11.32;;;25.30;66.20;;;;;;4962740;28;20398;-73
2022/01/10 06:57:51;;;;;;;19.15;8.32;;;25.30;66.20;;;;;;4960449;28;20035;-72
2022/01/10 07:00:18;;;;;;;15.48;4.88;;;25.30;66.20;;;;;;4966805;28;20037;-73
2022/01/10 07:02:44;;;;;;;18.65;3.92;;;25.30;66.10;;;;;;4967107;28;20157;-74
2022/01/10 07:05:11;;;;;;;30.42;7.85;;;25.30;66.10;;;;;;4972853;28;20026;-72
2022/01/10 07:07:38;;;;;;;42.10;14.93;;;25.30;66.10;;;;;;4962957;28;20098;-73
2022/01/10 07:10:05;;;;;;;26.55;12.60;;;25.30;66.30;;;;;;4962695;28;20048;-72
2022/01/10 07:12:31;;;;;;;21.92;11.43;;;25.20;66.30;;;;;;4967091;28;20102;-72
2022/01/10 07:14:58;;;;;;;17.63;8.43;;;25.20;66.30;;;;;;4967798;28;20026;-71
2022/01/10 07:17:24;;;;;;;14.88;5.60;;;25.20;66.30;;;;;;4965547;28;20022;-73
2022/01/10 07:19:51;;;;;;;13.60;3.92;;;25.20;66.40;;;;;;4969864;28;20498;-72
2022/01/10 07:22:17;;;;;;;15.80;3.78;;;25.20;66.60;;;;;;4967063;28;20065;-72
2022/01/10 07:24:44;;;;;;;11.50;3.45;;;25.20;66.60;;;;;;4966384;28;20089;-73
2022/01/10 07:27:10;;;;;;;11.52;3.50;;;25.10;66.60;;;;;;4963406;28;20024;-70
2022/01/10 07:29:37;;;;;;;13.20;3.75;;;25.10;66.70;;;;;;4957641;28;20028;-72
2022/01/10 07:32:06;;;;;;;24.88;5.50;;;25.10;66.90;;;;;;4958798;28;20525;-72
2022/01/10 07:34:32;;;;;;;45.15;6.60;;;25.10;67.30;;;;;;4961400;28;20035;-73
2022/01/10 07:36:59;;;;;;;25.52;5.68;;;25.10;67.80;;;;;;4969274;28;20027;-72
2022/01/10 07:39:25;;;;;;;15.63;3.85;;;25.00;68.30;;;;;;4965099;28;20046;-74
2022/01/10 07:41:52;;;;;;;7.35;2.35;;;25.00;68.50;;;;;;4962770;28;20553;-71
2022/01/10 07:44:18;;;;;;;12.48;7.68;;;25.00;68.90;;;;;;4969224;28;20362;-71
2022/01/10 07:46:45;;;;;;;17.25;11.05;;;24.90;69.00;;;;;;4973679;28;20437;-72
2022/01/10 07:49:11;;;;;;;16.98;6.20;;;24.90;69.10;;;;;;4975348;28;20456;-72
2022/01/10 07:51:37;;;;;;;8.95;4.65;;;24.90;69.30;;;;;;4966258;28;20031;-72
2022/01/10 07:54:04;;;;;;;11.98;3.58;;;24.80;69.30;;;;;;4959055;28;20057;-72
2022/01/10 07:56:31;;;;;;;7.43;3.58;;;24.80;69.30;;;;;;4960704;28;20034;-72
2022/01/10 07:58:57;;;;;;;9.07;3.10;;;24.80;69.30;;;;;;4964252;28;20051;-72
2022/01/10 08:01:24;;;;;;;5.30;1.70;;;24.80;69.30;;;;;;4965352;28;20069;-72
2022/01/10 08:03:51;;;;;;;11.27;3.63;;;24.80;69.30;;;;;;4956413;28;20138;-72
2022/01/10 08:06:19;;;;;;;12.77;3.58;;;24.90;69.40;;;;;;4959101;28;20022;-71
2022/01/10 08:08:45;;;;;;;31.02;5.85;;;24.90;69.50;;;;;;4966338;28;20089;-72
2022/01/10 08:11:12;;;;;;;24.35;3.35;;;24.90;69.60;;;;;;4961579;28;20038;-72
2022/01/10 08:13:41;;;;;;;17.58;3.92;;;24.90;69.50;;;;;;4967170;28;20394;-71
2022/01/10 08:16:08;;;;;;;12.73;4.10;;;24.90;69.40;;;;;;4956304;28;20035;-71
2022/01/10 08:18:35;;;;;;;16.98;4.68;;;24.90;69.20;;;;;;4964567;28;20031;-71
2022/01/10 08:21:03;;;;;;;36.70;4.95;;;24.90;69.00;;;;;;4970185;28;20073;-70
2022/01/10 08:23:31;;;;;;;24.77;5.43;;;25.00;69.00;;;;;;4959360;28;20124;-72
2022/01/10 08:26:37;;;;;;;14.65;3.22;;;25.00;69.10;;;;;;4963563;28;20019;-75
2022/01/10 08:29:43;;;;;;;21.65;3.78;;;25.00;69.30;;;;;;4969164;28;20035;-72
2022/01/10 08:32:29;;;;;;;;;;;25.00;68.80;;;;;;4961488;28;20359;-72
2022/01/10 08:35:35;;;;;;;14.40;3.55;;;25.00;68.40;;;;;;4961379;28;19921;-71
2022/01/10 08:38:21;;;;;;;;;;;25.00;68.30;;;;;;4965260;28;20035;-72
2022/01/10 08:41:27;;;;;;;15.23;4.13;;;25.00;67.90;;;;;;4957362;28;19910;-72
2022/01/10 08:44:14;;;;;;;;;;;25.00;67.60;;;;;;4965018;28;20038;-73
2022/01/10 08:47:20;;;;;;;21.88;3.95;;;25.00;67.30;;;;;;4963042;28;20365;-72
2022/01/10 08:50:06;;;;;;;;;;;25.00;67.20;;;;;;4960273;28;20378;-70
2022/01/10 08:53:12;;;;;;;17.98;4.07;;;25.10;67.10;;;;;;4969729;28;20387;-70
2022/01/10 08:55:58;;;;;;;;;;;25.20;66.90;;;;;;4959310;28;20027;-71
2022/01/10 08:59:04;;;;;;;27.33;4.53;;;25.20;66.80;;;;;;4960973;28;20274;-71
2022/01/10 09:01:50;;;;;;;;;;;25.20;66.80;;;;;;4967748;28;20023;-71
2022/01/10 09:04:56;;;;;;;13.60;2.92;;;25.20;66.30;;;;;;4962881;28;19972;-71
2022/01/10 09:07:42;;;;;;;;;;;25.30;65.70;;;;;;4966892;28;20027;-71
2022/01/10 09:10:48;;;;;;;6.85;3.00;;;25.30;65.20;;;;;;4969551;28;19910;-71
2022/01/10 09:13:34;;;;;;;;;;;25.30;65.00;;;;;;4964535;28;20044;-71
2022/01/10 09:16:40;;;;;;;7.07;3.20;;;25.40;64.80;;;;;;4962176;28;20409;-71
2022/01/10 09:19:25;;;;;;;;;;;25.40;64.60;;;;;;4964052;28;20146;-71
2022/01/10 09:22:32;;;;;;;12.65;2.95;;;25.40;64.30;;;;;;4964892;28;19932;-70
2022/01/10 09:25:38;;;;;;;23.58;4.70;;;25.40;63.60;;;;;;4961890;28;20632;-70
2022/01/10 09:28:24;;;;;;;;;;;25.40;63.00;;;;;;4963712;28;20019;-72
2022/01/10 09:31:30;;;;;;;12.10;2.63;;;25.40;62.90;;;;;;4982655;28;20254;-71
2022/01/10 09:34:16;;;;;;;;;;;25.40;62.80;;;;;;4963800;28;20435;-71
2022/01/10 09:37:22;;;;;;;7.32;2.95;;;25.40;62.80;;;;;;4963326;28;19914;-71
2022/01/10 09:40:28;;;;;;;12.30;2.78;;;25.40;62.50;;;;;;4969265;28;20086;-72
2022/01/10 09:43:34;;;;;;;20.17;3.80;;;25.40;62.20;;;;;;4966134;28;20138;-72
2022/01/10 09:46:20;;;;;;;;;;;25.40;62.00;;;;;;4957740;28;20121;-71
2022/01/10 09:49:26;;;;;;;11.50;3.58;;;25.40;62.10;;;;;;4963739;28;19915;-71
2022/01/10 09:52:13;;;;;;;;;;;25.40;62.00;;;;;;4965185;28;20061;-72
2022/01/10 09:55:19;;;;;;;6.80;2.95;;;25.40;61.90;;;;;;4964905;28;20005;-71
2022/01/10 09:58:05;;;;;;;;;;;25.40;61.70;;;;;;4967862;28;20429;-72
2022/01/10 10:01:14;;;;;;;9.70;3.25;;;25.40;62.00;;;;;;4960934;28;20281;-71
2022/01/10 10:04:20;;;;;;;14.48;2.85;;;25.50;61.40;;;;;;4966913;28;20046;-72
2022/01/10 10:07:08;;;;;;;;;;;25.50;61.40;;;;;;4963427;28;20363;-69
2022/01/10 10:10:20;;;;;;;5.57;2.35;;;25.60;61.20;;;;;;4969514;28;19910;-72
2022/01/10 10:13:27;;;;;;;8.23;3.90;;;25.70;58.40;;;;;;4966750;28;20393;-71
2022/01/10 10:16:14;;;;;;;;;;;25.90;59.10;;;;;;4968952;28;20026;-70
2022/01/10 10:54:05;;;;;;;6.93;2.25;;;27.40;55.20;;;;;;5095635;27;20395;-74
2022/01/10 10:56:37;;;;;;;3.65;1.45;;;27.40;55.70;;;;;;5089203;28;20028;-71
2022/01/10 12:53:04;;;;;;;23.27;3.00;;;27.70;57.50;;;;;;4991448;28;20937;-71
2022/01/10 12:55:31;;;;;;;13.10;2.42;;;27.70;58.20;;;;;;4992569;28;20401;-74
2022/01/10 12:57:57;;;;;;;21.48;2.72;;;27.70;58.30;;;;;;4991999;28;20058;-71
2022/01/10 13:00:24;;;;;;;15.40;3.45;;;27.80;57.80;;;;;;4993386;28;20081;-74
2022/01/10 13:02:50;;;;;;;11.10;3.45;;;27.80;57.40;;;;;;4987575;28;20102;-71
2022/01/10 13:05:20;;;;;;;9.18;2.50;;;27.90;57.10;;;;;;4996025;28;20034;-72
2022/01/10 13:07:52;;;;;;;4.72;1.60;;;27.90;57.20;;;;;;4986503;28;20031;-72
2022/01/10 13:10:22;;;;;;;3.05;1.40;;;27.90;56.80;;;;;;4996385;28;20094;-72
2022/01/10 13:13:02;;;;;;;6.55;1.50;;;27.90;56.70;;;;;;4991828;28;20050;-73
2022/01/10 13:15:39;;;;;;;6.50;1.55;;;27.90;56.80;;;;;;4984265;28;20504;-71
2022/01/10 13:18:08;;;;;;;5.97;1.27;;;28.00;57.20;;;;;;4986196;28;20050;-72
2022/01/10 13:20:36;;;;;;;3.53;1.73;;;28.00;57.20;;;;;;4995100;28;20019;-74
2022/01/10 13:23:11;;;;;;;8.30;3.00;;;28.10;57.40;;;;;;4988987;28;20105;-71
2022/01/10 13:25:47;;;;;;;5.93;2.80;;;28.20;57.50;;;;;;4987565;28;20034;-70
2022/01/10 13:28:15;;;;;;;4.40;1.70;;;28.20;56.90;;;;;;4994432;28;20030;-71
2022/01/10 13:30:52;;;;;;;10.05;1.92;;;28.20;56.50;;;;;;4994835;28;20076;-70
2022/01/10 13:33:21;;;;;;;5.50;1.75;;;28.20;56.60;;;;;;4987788;28;20480;-70
2022/01/10 13:35:59;;;;;;;5.28;1.60;;;28.20;56.90;;;;;;4994497;28;20054;-71
2022/01/10 13:38:27;;;;;;;40.35;3.65;;;28.20;57.50;;;;;;4989809;28;20464;-71
2022/01/10 13:40:55;;;;;;;12.98;2.53;;;28.20;57.00;;;;;;4990837;28;20029;-70
2022/01/10 13:43:30;;;;;;;7.00;1.80;;;28.20;57.10;;;;;;4995811;28;20030;-70
2022/01/10 13:46:06;;;;;;;10.65;1.60;;;28.10;57.20;;;;;;4986578;28;20102;-70
2022/01/10 13:48:37;;;;;;;7.07;1.48;;;28.10;57.60;;;;;;4984788;28;20072;-70
2022/01/10 13:51:43;;;;;;;14.43;2.03;;;28.10;58.10;;;;;;5002634;28;20045;-70
2022/01/10 13:54:49;;;;;;;18.25;2.70;;;28.00;58.40;;;;;;5017440;28;20188;-71
2022/01/10 13:57:55;;;;;;;10.27;1.88;;;28.00;58.70;;;;;;5012455;28;20484;-70
2022/01/10 14:01:02;;;;;;;8.57;1.58;;;28.00;58.70;;;;;;5014257;28;20098;-70
2022/01/10 14:04:08;;;;;;;5.07;1.70;;;28.00;58.50;;;;;;4994974;28;20159;-70
2022/01/10 14:07:17;;;;;;;4.47;1.58;;;28.00;58.60;;;;;;5002922;28;20062;-70
2022/01/10 14:10:24;;;;;;;12.98;2.63;;;28.00;58.40;;;;;;5002798;28;20030;-70
2022/01/10 14:13:30;;;;;;;4.18;1.77;;;28.10;58.70;;;;;;4999267;28;20038;-70
2022/01/10 14:16:47;;;;;;;2.60;0.73;;;28.00;58.50;;;;;;5001305;28;20021;-72
2022/01/10 14:19:54;;;;;;;4.90;1.10;;;28.00;58.70;;;;;;4999443;28;20026;-72
2022/01/10 14:23:00;;;;;;;4.57;1.65;;;27.90;59.30;;;;;;5000407;28;20184;-70
2022/01/10 14:26:06;;;;;;;55.45;5.85;;;27.90;60.10;;;;;;4982950;28;20026;-73
2022/01/10 14:29:12;;;;;;;62.70;4.32;;;27.90;60.10;;;;;;4983945;28;20031;-72
2022/01/10 14:32:20;;;;;;;21.20;2.78;;;27.80;60.60;;;;;;4987855;28;20034;-72
2022/01/10 14:35:26;;;;;;;13.52;2.20;;;27.70;61.10;;;;;;4984527;28;20421;-73
2022/01/10 14:38:32;;;;;;;7.50;1.77;;;27.70;61.60;;;;;;4987760;28;20573;-75
2022/01/10 14:41:16;;;;;;;8.23;2.15;;;27.70;61.70;;;;;;4993676;28;20431;-76
2022/01/10 14:43:42;;;;;;;8.15;2.50;;;27.70;61.50;;;;;;4987097;28;20031;-72
2022/01/10 14:46:09;;;;;;;5.10;1.50;;;27.70;61.60;;;;;;4996089;28;20084;-72
2022/01/10 14:48:37;;;;;;;4.18;1.65;;;27.70;61.50;;;;;;4993876;28;20393;-72
2022/01/10 14:51:07;;;;;;;2.50;1.60;;;27.70;61.30;;;;;;4981103;28;20401;-72
2022/01/10 14:53:35;;;;;;;32.83;5.97;;;27.70;61.10;;;;;;4962413;28;20078;-75
2022/01/10 14:56:01;;;;;;;40.75;6.15;;;27.70;61.40;;;;;;4973577;28;20069;-74
2022/01/10 14:58:28;;;;;;;81.10;11.75;;;27.70;61.40;;;;;;4983482;28;20028;-70
2022/01/10 15:00:55;;;;;;;67.38;8.55;;;27.70;61.50;;;;;;4987878;28;20029;-73
2022/01/10 15:03:22;;;;;;;39.80;5.93;;;27.70;61.60;;;;;;4989871;28;20057;-71
2022/01/10 15:05:53;;;;;;;106.85;13.43;;;27.70;61.40;;;;;;4993407;28;20346;-70
2022/01/10 15:08:21;;;;;;;62.30;7.65;;;27.80;61.70;;;;;;4988497;28;20157;-70
2022/01/10 15:10:48;;;;;;;36.95;5.57;;;27.80;61.70;;;;;;4990969;28;20030;-71
2022/01/10 15:13:15;;;;;;;11.80;1.95;;;27.80;61.80;;;;;;4986343;28;20045;-73
2022/01/10 15:15:43;;;;;;;13.23;2.65;;;27.90;62.00;;;;;;4994711;28;20741;-70
2022/01/10 15:18:10;;;;;;;14.02;1.92;;;27.90;62.10;;;;;;4991605;28;20019;-74
2022/01/10 15:20:37;;;;;;;8.25;2.00;;;27.90;61.80;;;;;;4991719;28;20026;-73
2022/01/10 15:23:04;;;;;;;25.58;2.60;;;27.90;61.20;;;;;;4990818;28;20117;-74
2022/01/10 15:25:30;;;;;;;14.13;2.42;;;27.90;61.10;;;;;;4991242;28;20105;-70
2022/01/10 15:27:57;;;;;;;9.70;1.30;;;27.90;61.10;;;;;;4990242;28;20022;-73
2022/01/10 15:30:27;;;;;;;9.50;1.38;;;27.90;61.00;;;;;;4987113;28;20113;-70
2022/01/10 15:32:58;;;;;;;4.32;1.00;;;27.90;60.70;;;;;;4991385;28;20034;-71
2022/01/10 15:35:24;;;;;;;1.65;1.17;;;27.90;60.60;;;;;;4997316;28;20018;-73
2022/01/10 15:37:51;;;;;;;3.42;0.90;;;27.90;60.50;;;;;;4993625;28;20447;-72
2022/01/10 15:40:20;;;;;;;3.92;1.00;;;27.90;60.50;;;;;;5003608;28;20061;-73
2022/01/10 15:42:46;;;;;;;8.60;1.83;;;27.90;60.50;;;;;;4976423;28;20029;-71
2022/01/10 15:45:14;;;;;;;25.40;3.28;;;27.90;60.60;;;;;;4995941;28;20105;-71
2022/01/10 15:47:45;;;;;;;38.47;4.80;;;27.90;60.80;;;;;;4992950;28;20046;-72
2022/01/10 15:50:13;;;;;;;23.38;3.15;;;27.90;61.10;;;;;;4990857;28;20061;-71
2022/01/10 15:52:42;;;;;;;12.05;3.28;;;27.90;61.00;;;;;;4991594;28;20129;-71
2022/01/10 15:55:09;;;;;;;77.30;6.65;;;27.90;61.30;;;;;;4995937;28;20022;-70
2022/01/10 15:57:36;;;;;;;56.50;17.25;;;27.70;61.50;;;;;;4998383;28;20065;-71
2022/01/10 16:00:05;;;;;;;43.38;20.05;;;27.70;62.00;;;;;;4985316;28;20413;-70
2022/01/10 16:02:31;;;;;;;16.15;8.90;;;27.70;62.20;;;;;;4991849;28;20019;-71